Loveville, Maryland
Current Conditions -  °F | °C
As of 8:09 AM on Wednesday 22 Oct 2014 (Local Time) from K2W6 Reporting Station
Overcast Overcast  
Wind Chill: 54°   Ceiling: 1200
Heat Index: 54°   Visibility: 10mi
Dew Point: 50°   Wind: 8mph
Humidity: 88%   Direction: 320°NW
Pressure: 29.87"   Gusts: NA
Location:  38.36°N, 76.69°W
Report Text: K2W6 221209Z AUTO 32007KT 10SM BKN012 BKN019 OVC025 12/10 A2987 RMK AO1
Loading
Personal Weather Stations






























Interactive Weather Map
Tropical Storm Tracking
New forecast layout! Learn more

10-Day Weather Forecast

Advertisements
Track Severe Weather on mobile